createdAt,value
2023-03-25T00:00:40.907Z,99406.69
2023-03-25T00:03:09.478Z,99417.72
2023-03-25T00:05:40.257Z,99418.00
2023-03-25T00:08:07.402Z,99426.38
2023-03-25T00:10:39.036Z,99424.69
2023-03-25T00:13:08.528Z,99422.84
2023-03-25T00:15:35.710Z,99420.00
2023-03-25T00:18:03.923Z,99426.41
2023-03-25T00:20:34.078Z,99426.41
2023-03-25T00:23:03.384Z,99420.72
2023-03-25T00:25:30.526Z,99413.97
2023-03-25T00:28:00.295Z,99425.56
2023-03-25T00:30:27.528Z,99414.22
2023-03-25T00:32:57.966Z,99400.22
2023-03-25T00:35:30.544Z,99401.06
2023-03-25T00:38:02.347Z,99413.63
2023-03-25T00:40:39.676Z,99401.19
2023-03-25T00:43:12.656Z,99409.53
2023-03-25T00:46:01.488Z,99411.63
2023-03-25T00:48:42.410Z,99418.84
2023-03-25T00:51:19.700Z,99422.59
2023-03-25T00:53:56.439Z,99418.25
2023-03-25T00:56:45.802Z,99427.31
2023-03-25T00:59:28.884Z,99421.03
2023-03-25T01:02:10.940Z,99416.81
2023-03-25T01:04:44.230Z,99418.16
2023-03-25T01:07:20.578Z,99426.25
2023-03-25T01:09:48.997Z,99419.13
2023-03-25T01:12:24.777Z,99420.94
2023-03-25T01:14:56.942Z,99423.88
2023-03-25T01:17:24.299Z,99421.09
2023-03-25T01:19:51.576Z,99412.66
2023-03-25T01:22:21.151Z,99424.22
2023-03-25T01:24:50.749Z,99422.53
2023-03-25T01:27:17.999Z,99418.19
2023-03-25T01:29:48.148Z,99419.75
2023-03-25T01:32:23.281Z,99413.50
2023-03-25T01:35:12.542Z,99409.31
2023-03-25T01:37:44.819Z,99403.72
2023-03-25T01:40:18.216Z,99402.91
2023-03-25T01:42:45.298Z,99401.34
2023-03-25T01:45:24.104Z,99398.69
2023-03-25T01:47:58.785Z,99398.78
2023-03-25T01:50:29.462Z,99397.81
2023-03-25T01:52:58.069Z,99381.31
2023-03-25T01:55:27.694Z,99375.41
2023-03-25T01:57:57.253Z,99379.50
2023-03-25T02:00:26.203Z,99376.03
2023-03-25T02:02:55.079Z,99379.75
2023-03-25T02:05:26.086Z,99384.94
2023-03-25T02:07:54.981Z,99382.63
2023-03-25T02:10:24.730Z,99375.53
2023-03-25T02:12:51.696Z,99376.03
2023-03-25T02:15:19.316Z,99371.16
2023-03-25T02:18:03.634Z,99363.78
2023-03-25T02:20:48.824Z,99372.63
2023-03-25T02:23:28.676Z,99367.88
2023-03-25T02:26:27.756Z,99359.09
2023-03-25T02:29:02.293Z,99357.41
2023-03-25T02:32:01.679Z,99355.56
2023-03-25T02:34:54.193Z,99354.16
2023-03-25T02:37:52.580Z,99355.72
2023-03-25T02:40:52.414Z,99350.41
2023-03-25T02:43:26.010Z,99345.81
2023-03-25T02:45:56.516Z,99350.16
2023-03-25T02:48:35.176Z,99335.91
2023-03-25T02:51:06.531Z,99341.81
2023-03-25T02:53:34.693Z,99335.69
2023-03-25T02:56:05.081Z,99331.53
2023-03-25T02:58:33.362Z,99340.22
2023-03-25T03:01:00.408Z,99327.09
2023-03-25T03:03:30.998Z,99318.72
2023-03-25T03:06:07.850Z,99317.44
2023-03-25T03:08:50.395Z,99318.41
2023-03-25T03:11:22.647Z,99317.91
2023-03-25T03:14:30.108Z,99320.09
2023-03-25T03:17:10.244Z,99305.84
2023-03-25T03:19:46.648Z,99320.72
2023-03-25T03:22:26.010Z,99321.31
2023-03-25T03:25:18.259Z,99316.47
2023-03-25T03:27:55.858Z,99323.34
2023-03-25T03:30:34.225Z,99316.47
2023-03-25T03:33:15.685Z,99322.13
2023-03-25T03:35:51.925Z,99313.16
2023-03-25T03:38:21.646Z,99333.88
2023-03-25T03:40:56.263Z,99334.03
2023-03-25T03:43:39.309Z,99353.44
2023-03-25T03:46:35.498Z,99332.34
2023-03-25T03:49:09.627Z,99334.44
2023-03-25T03:51:40.771Z,99335.69
2023-03-25T03:54:28.524Z,99331.47
2023-03-25T03:57:31.333Z,99324.19
2023-03-25T04:00:13.919Z,99331.59
2023-03-25T04:02:55.817Z,99334.47
2023-03-25T04:05:33.931Z,99344.75
2023-03-25T04:08:12.245Z,99343.66
2023-03-25T04:10:47.067Z,99350.06
2023-03-25T04:13:23.876Z,99353.69
2023-03-25T04:15:57.507Z,99331.28
2023-03-25T04:18:28.966Z,99322.16
2023-03-25T04:21:15.959Z,99316.44
2023-03-25T04:23:54.320Z,99318.50
2023-03-25T04:26:35.236Z,99329.97
2023-03-25T04:29:27.813Z,99317.66
2023-03-25T04:32:08.651Z,99332.84
2023-03-25T04:34:54.202Z,99332.97
2023-03-25T04:37:33.975Z,99340.34
2023-03-25T04:40:18.095Z,99329.50
2023-03-25T04:43:22.292Z,99336.50
2023-03-25T04:46:25.938Z,99335.84
2023-03-25T04:49:08.442Z,99328.41
2023-03-25T04:58:36.673Z,99326.00
2023-03-25T05:05:00.869Z,99333.13
2023-03-25T05:11:28.949Z,99329.72
2023-03-25T05:15:16.324Z,99330.94
2023-03-25T05:18:17.286Z,99326.13
2023-03-25T05:20:47.110Z,99323.19
2023-03-25T05:23:18.174Z,99322.69
2023-03-25T05:25:46.464Z,99322.91
2023-03-25T05:32:38.112Z,99319.44
2023-03-25T05:41:33.356Z,99314.03
2023-03-25T05:44:01.059Z,99312.84
2023-03-25T05:46:29.874Z,99307.53
2023-03-25T05:49:01.152Z,99316.91
2023-03-25T05:51:29.492Z,99311.75
2023-03-25T05:53:56.412Z,99315.97
2023-03-25T05:56:24.479Z,99328.59
2023-03-25T05:59:13.390Z,99324.84
2023-03-25T06:01:47.794Z,99325.28
2023-03-25T06:04:17.021Z,99328.53
2023-03-25T06:06:46.516Z,99330.88
2023-03-25T06:09:27.575Z,99345.56
2023-03-25T06:11:55.737Z,99343.13
2023-03-25T06:14:30.280Z,99343.13
2023-03-25T06:16:57.504Z,99340.47
2023-03-25T06:19:37.357Z,99331.34
2023-03-25T06:22:04.560Z,99341.75
2023-03-25T06:24:31.344Z,99348.03
2023-03-25T06:26:58.115Z,99344.88
2023-03-25T06:32:19.004Z,99346.16
2023-03-25T07:15:33.427Z,99349.78
2023-03-25T07:18:00.544Z,99351.69
2023-03-25T07:20:27.545Z,99350.91
2023-03-25T07:22:55.541Z,99349.44
2023-03-25T07:25:22.714Z,99357.91
2023-03-25T07:27:49.706Z,99355.47
2023-03-25T07:30:37.183Z,99353.41
2023-03-25T07:33:11.913Z,99357.03
2023-03-25T07:35:38.917Z,99367.72
2023-03-25T07:38:10.273Z,99378.84
2023-03-25T07:40:39.757Z,99363.00
2023-03-25T07:43:16.633Z,99373.44
2023-03-25T07:54:05.194Z,99365.47
2023-03-25T07:56:33.242Z,99394.25
2023-03-25T08:02:35.345Z,99365.66
2023-03-25T08:08:25.479Z,99362.66
2023-03-25T08:10:53.969Z,99376.63
2023-03-25T08:13:30.333Z,99369.84
2023-03-25T08:16:00.701Z,99370.00
2023-03-25T08:18:39.403Z,99418.59
2023-03-25T08:21:30.613Z,99365.78
2023-03-25T08:24:07.860Z,99358.78
2023-03-25T08:26:40.649Z,99359.97
2023-03-25T08:29:20.793Z,99380.97
2023-03-25T08:32:01.428Z,99372.00
2023-03-25T08:38:06.801Z,99368.06
2023-03-25T08:41:27.033Z,99374.09
2023-03-25T08:43:53.934Z,99369.06
2023-03-25T08:46:55.666Z,99357.16
2023-03-25T08:50:06.442Z,99383.00
2023-03-25T08:52:46.594Z,99365.66
2023-03-25T08:56:23.642Z,99401.75
2023-03-25T08:59:06.417Z,99385.78
2023-03-25T09:01:40.432Z,99383.13
2023-03-25T09:04:07.672Z,99384.81
2023-03-25T09:06:47.702Z,99385.06
2023-03-25T09:09:26.535Z,99378.66
2023-03-25T09:11:53.542Z,99395.47
2023-03-25T09:14:20.565Z,99394.47
2023-03-25T09:16:47.657Z,99375.81
2023-03-25T09:19:34.871Z,99381.09
2023-03-25T09:22:23.025Z,99371.88
2023-03-25T09:25:00.323Z,99378.59
2023-03-25T09:27:53.783Z,99382.69
2023-03-25T09:31:49.635Z,99408.34
2023-03-25T09:40:34.215Z,99388.59
2023-03-25T09:44:21.361Z,99387.41
2023-03-25T10:05:23.169Z,99390.94
2023-03-25T10:30:54.192Z,99368.75
2023-03-25T10:38:15.136Z,99376.94
2023-03-25T10:40:52.287Z,99359.72
2023-03-25T10:47:46.110Z,99353.88
2023-03-25T10:57:33.836Z,99341.28
2023-03-25T11:00:18.676Z,99343.66
2023-03-25T11:02:47.346Z,99370.56
2023-03-25T11:05:19.933Z,99337.06
2023-03-25T11:08:24.176Z,99367.91
2023-03-25T11:14:40.991Z,99326.22
2023-03-25T11:20:35.371Z,99364.84
2023-03-25T11:23:29.994Z,99350.06
2023-03-25T11:26:57.464Z,99322.16
2023-03-25T11:29:43.558Z,99313.06
2023-03-25T11:32:41.326Z,99323.16
2023-03-25T11:35:45.905Z,99340.00
2023-03-25T11:39:05.170Z,99320.66
2023-03-25T11:49:26.428Z,99368.00
2023-03-25T11:52:01.892Z,99354.53
2023-03-25T11:54:29.380Z,99338.28
2023-03-25T11:56:57.872Z,99344.16
2023-03-25T11:59:36.772Z,99332.97
2023-03-25T12:02:15.816Z,99327.78
2023-03-25T12:04:56.345Z,99326.00
2023-03-25T12:07:26.628Z,99334.84
2023-03-25T12:09:59.563Z,99331.75
2023-03-25T12:12:29.886Z,99327.41
2023-03-25T12:15:03.612Z,99321.91
2023-03-25T12:30:12.075Z,99285.34
2023-03-25T12:33:06.864Z,99301.31
2023-03-25T12:35:44.432Z,99310.31
2023-03-25T12:38:29.520Z,99296.00
2023-03-25T12:41:25.947Z,99282.28
2023-03-25T12:44:07.440Z,99282.66
2023-03-25T12:46:56.155Z,99276.91
2023-03-25T12:49:48.641Z,99262.03
2023-03-25T12:52:20.230Z,99265.50
2023-03-25T12:55:05.780Z,99273.63
2023-03-25T12:57:58.837Z,99259.78
2023-03-25T13:00:28.958Z,99259.06
2023-03-25T13:03:09.997Z,99287.28
2023-03-25T13:05:52.681Z,99281.81
2023-03-25T13:08:32.685Z,99284.19
2023-03-25T13:11:22.933Z,99302.94
2023-03-25T13:13:51.955Z,99281.22
2023-03-25T13:16:25.237Z,99287.56
2023-03-25T13:19:02.503Z,99280.59
2023-03-25T13:21:33.424Z,99271.59
2023-03-25T13:24:22.782Z,99296.31
2023-03-25T13:26:53.283Z,99283.13
2023-03-25T13:29:28.805Z,99279.88
2023-03-25T13:31:58.877Z,99287.47
2023-03-25T13:34:35.543Z,99286.50
2023-03-25T13:37:33.690Z,99281.84
2023-03-25T13:40:11.110Z,99259.69
2023-03-25T13:42:45.077Z,99274.69
2023-03-25T13:45:20.118Z,99253.78
2023-03-25T13:47:53.171Z,99282.66
2023-03-25T13:50:29.124Z,99261.66
2023-03-25T13:53:09.639Z,99274.28
2023-03-25T13:55:45.128Z,99262.38
2023-03-25T13:58:30.937Z,99275.28
2023-03-25T14:01:13.088Z,99276.09
2023-03-25T14:03:40.070Z,99276.66
2023-03-25T14:07:04.006Z,99294.47
2023-03-25T14:09:49.596Z,99271.63
2023-03-25T14:12:27.109Z,99281.41
2023-03-25T14:15:47.249Z,99285.78
2023-03-25T14:18:20.190Z,99286.91
2023-03-25T14:20:51.481Z,99270.22
2023-03-25T14:23:28.992Z,99281.25
2023-03-25T14:26:00.189Z,99280.53
2023-03-25T14:28:41.449Z,99267.88
2023-03-25T14:31:08.432Z,99267.84
2023-03-25T14:34:00.941Z,99261.78
2023-03-25T14:36:31.505Z,99245.59
2023-03-25T14:38:59.759Z,99256.94
2023-03-25T14:42:02.086Z,99272.28
2023-03-25T14:44:33.451Z,99289.41
2023-03-25T14:47:23.069Z,99260.72
2023-03-25T14:50:05.085Z,99214.03
2023-03-25T14:52:33.160Z,99263.38
2023-03-25T14:55:06.548Z,99241.38
2023-03-25T14:57:40.946Z,99249.56
2023-03-25T15:00:16.266Z,99247.63
2023-03-25T15:02:44.598Z,99258.16
2023-03-25T15:05:12.187Z,99247.78
2023-03-25T15:07:54.477Z,99254.13
2023-03-25T15:10:28.137Z,99245.56
2023-03-25T15:13:07.691Z,99252.13
2023-03-25T15:15:34.588Z,99257.44
2023-03-25T15:18:01.458Z,99259.34
2023-03-25T15:20:29.788Z,99249.84
2023-03-25T15:23:18.886Z,99239.69
2023-03-25T15:25:47.178Z,99233.69
2023-03-25T15:28:19.886Z,99241.00
2023-03-25T15:31:20.384Z,99240.66
2023-03-25T15:34:00.724Z,99255.06
2023-03-25T15:36:53.986Z,99242.69
2023-03-25T15:39:54.069Z,99232.56
2023-03-25T15:42:38.051Z,99227.97
2023-03-25T15:45:19.703Z,99220.34
2023-03-25T15:48:05.412Z,99224.50
2023-03-25T15:50:44.316Z,99223.63
2023-03-25T15:53:35.804Z,99224.31
2023-03-25T15:56:14.150Z,99239.75
2023-03-25T15:59:05.893Z,99235.06
2023-03-25T16:01:39.467Z,99229.94
2023-03-25T16:04:20.777Z,99237.38
2023-03-25T16:06:52.490Z,99239.16
2023-03-25T16:09:28.987Z,99244.53
2023-03-25T16:12:01.570Z,99241.91
2023-03-25T16:14:31.145Z,99237.72
2023-03-25T16:17:00.475Z,99243.03
2023-03-25T16:19:41.846Z,99243.81
2023-03-25T16:22:20.078Z,99250.75
2023-03-25T16:24:48.757Z,99254.84
2023-03-25T16:27:29.644Z,99245.34
2023-03-25T16:29:57.056Z,99263.19
2023-03-25T16:32:26.512Z,99293.19
2023-03-25T16:34:59.813Z,99287.59
2023-03-25T16:37:27.550Z,99322.22
2023-03-25T16:39:56.848Z,99245.81
2023-03-25T16:42:31.448Z,99299.25
2023-03-25T16:44:58.236Z,99288.56
2023-03-25T16:47:25.466Z,99279.31
2023-03-25T16:49:54.805Z,99286.84
2023-03-25T16:52:28.835Z,99285.16
2023-03-25T16:54:55.725Z,99282.09
2023-03-25T16:57:27.901Z,99294.34
2023-03-25T16:59:56.262Z,99287.44
2023-03-25T17:02:27.797Z,99281.25
2023-03-25T17:04:58.118Z,99300.13
2023-03-25T17:07:26.957Z,99297.63
2023-03-25T17:09:59.128Z,99300.00
2023-03-25T17:12:27.622Z,99295.41
2023-03-25T17:15:04.585Z,99307.97
2023-03-25T17:17:51.435Z,99304.50
2023-03-25T17:20:24.538Z,99290.63
2023-03-25T17:23:38.246Z,99293.53
2023-03-25T17:26:15.645Z,99301.25
2023-03-25T17:28:56.832Z,99314.97
2023-03-25T17:31:43.673Z,99343.75
2023-03-25T17:34:17.123Z,99328.88
2023-03-25T17:36:47.965Z,99333.41
2023-03-25T17:39:18.458Z,99341.88
2023-03-25T17:41:46.384Z,99337.59
2023-03-25T17:44:17.865Z,99338.59
2023-03-25T17:46:45.706Z,99337.84
2023-03-25T17:49:18.982Z,99331.09
2023-03-25T17:51:46.868Z,99342.63
2023-03-25T17:54:14.960Z,99330.31
2023-03-25T17:56:47.184Z,99332.16
2023-03-25T17:59:18.229Z,99338.03
2023-03-25T18:01:50.543Z,99340.69
2023-03-25T18:04:21.401Z,99325.47
2023-03-25T18:06:48.739Z,99330.97
2023-03-25T18:09:21.390Z,99332.72
2023-03-25T18:11:50.872Z,99329.31
2023-03-25T18:14:17.834Z,99330.72
2023-03-25T18:16:44.745Z,99330.72
2023-03-25T18:19:17.366Z,99329.50
2023-03-25T18:21:44.503Z,99323.78
2023-03-25T18:24:14.145Z,99320.63
2023-03-25T18:26:43.820Z,99327.78
2023-03-25T18:29:28.948Z,99330.28
2023-03-25T18:31:56.180Z,99333.88
2023-03-25T18:34:25.577Z,99332.44
2023-03-25T18:36:54.133Z,99329.09
2023-03-25T18:39:23.702Z,99322.97
2023-03-25T18:41:50.649Z,99312.47
2023-03-25T18:44:17.612Z,99309.28
2023-03-25T18:46:44.483Z,99322.00
2023-03-25T18:49:17.525Z,99310.28
2023-03-25T18:51:45.613Z,99318.13
2023-03-25T18:54:14.390Z,99334.03
2023-03-25T18:56:42.396Z,99329.97
2023-03-25T18:59:17.234Z,99331.75
2023-03-25T19:01:44.457Z,99322.00
2023-03-25T19:04:14.693Z,99310.78
2023-03-25T19:06:44.492Z,99309.16
2023-03-25T19:09:18.467Z,99311.81
2023-03-25T19:11:49.025Z,99300.66
2023-03-25T19:14:16.663Z,99297.91
2023-03-25T19:17:01.219Z,99301.41
2023-03-25T19:19:41.177Z,99301.53
2023-03-25T19:22:10.229Z,99308.41
2023-03-25T19:24:38.202Z,99307.41
2023-03-25T19:27:05.677Z,99323.41
2023-03-25T19:29:33.211Z,99334.94
2023-03-25T19:32:00.815Z,99323.84
2023-03-25T19:34:28.914Z,99323.03
2023-03-25T19:37:02.965Z,99306.44
2023-03-25T19:39:30.846Z,99304.25
2023-03-25T19:41:59.504Z,99307.13
2023-03-25T19:44:26.623Z,99300.78
2023-03-25T19:46:54.115Z,99288.41
2023-03-25T19:49:36.341Z,99279.81
2023-03-25T19:52:06.800Z,99273.91
2023-03-25T19:54:33.595Z,99278.97
2023-03-25T19:57:00.375Z,99278.19
2023-03-25T19:59:27.345Z,99291.22
2023-03-25T20:01:54.688Z,99276.38
2023-03-25T20:04:21.524Z,99267.09
2023-03-25T20:06:49.391Z,99281.69
2023-03-25T20:09:17.419Z,99269.91
2023-03-25T20:11:44.997Z,99261.13
2023-03-25T20:14:11.942Z,99288.16
2023-03-25T20:16:41.513Z,99273.28
2023-03-25T20:19:08.582Z,99276.91
2023-03-25T20:21:35.566Z,99264.50
2023-03-25T20:24:04.870Z,99261.66
2023-03-25T20:26:31.960Z,99267.56
2023-03-25T20:28:58.978Z,99268.13
2023-03-25T20:31:26.090Z,99273.78
2023-03-25T20:33:53.227Z,99283.19
2023-03-25T20:36:20.489Z,99259.81
2023-03-25T20:38:57.291Z,99267.88
2023-03-25T20:41:26.609Z,99270.75
2023-03-25T20:43:53.537Z,99268.22
2023-03-25T20:46:25.165Z,99263.38
2023-03-25T20:48:55.956Z,99260.38
2023-03-25T20:51:26.049Z,99258.28
2023-03-25T20:53:53.618Z,99260.41
2023-03-25T20:56:21.315Z,99258.34
2023-03-25T20:58:54.292Z,99262.81
2023-03-25T21:01:21.547Z,99277.66
2023-03-25T21:03:52.189Z,99285.66
2023-03-25T21:06:23.599Z,99271.22
2023-03-25T21:08:51.692Z,99274.31
2023-03-25T21:11:18.504Z,99266.16
2023-03-25T21:13:45.784Z,99258.78
2023-03-25T21:16:14.254Z,99260.69
2023-03-25T21:18:42.989Z,99258.53
2023-03-25T21:21:10.383Z,99254.94
2023-03-25T21:23:37.247Z,99256.69
2023-03-25T21:26:09.669Z,99281.75
2023-03-25T21:28:39.231Z,99259.63
2023-03-25T21:31:17.463Z,99265.75
2023-03-25T21:33:49.948Z,99273.75
2023-03-25T21:36:20.328Z,99275.31
2023-03-25T21:38:47.421Z,99263.66
2023-03-25T21:41:14.714Z,99228.97
2023-03-25T21:43:42.514Z,99258.72
2023-03-25T21:46:10.870Z,99257.03
2023-03-25T21:48:38.888Z,99246.19
2023-03-25T21:51:10.288Z,99255.97
2023-03-25T21:53:46.921Z,99264.47
2023-03-25T21:56:21.485Z,99257.63
2023-03-25T21:58:52.194Z,99261.59
2023-03-25T22:01:28.721Z,99252.69
2023-03-25T22:03:57.516Z,99272.31
2023-03-25T22:06:31.088Z,99265.19
2023-03-25T22:08:59.434Z,99257.84
2023-03-25T22:11:31.548Z,99264.84
2023-03-25T22:13:58.678Z,99263.41
2023-03-25T22:16:26.257Z,99252.69
2023-03-25T22:18:53.758Z,99264.38
2023-03-25T22:21:23.321Z,99253.38
2023-03-25T22:23:54.385Z,99256.16
2023-03-25T22:26:22.009Z,99254.72
2023-03-25T22:28:51.432Z,99264.50
2023-03-25T22:31:20.006Z,99262.41
2023-03-25T22:33:49.517Z,99246.03
2023-03-25T22:36:17.912Z,99265.31
2023-03-25T22:38:46.540Z,99265.66
2023-03-25T22:41:16.014Z,99264.50
2023-03-25T22:43:49.418Z,99256.06
2023-03-25T22:46:16.585Z,99250.84
2023-03-25T22:48:43.525Z,99245.94
2023-03-25T22:51:16.202Z,99245.69
2023-03-25T22:53:43.786Z,99251.72
2023-03-25T22:56:11.582Z,99255.31
2023-03-25T22:58:39.521Z,99244.84
2023-03-25T23:01:24.088Z,99253.53
2023-03-25T23:03:51.973Z,99260.03
2023-03-25T23:06:19.575Z,99250.03
2023-03-25T23:08:47.556Z,99258.59
2023-03-25T23:11:20.462Z,99251.25
2023-03-25T23:13:50.648Z,99265.94
2023-03-25T23:16:20.757Z,99250.88
2023-03-25T23:18:47.895Z,99261.75
2023-03-25T23:21:22.505Z,99257.88
2023-03-25T23:23:53.436Z,99263.41
2023-03-25T23:26:30.109Z,99274.84
2023-03-25T23:29:00.751Z,99270.75
2023-03-25T23:31:34.427Z,99267.25
2023-03-25T23:34:04.272Z,99277.88
2023-03-25T23:36:34.501Z,99279.06
2023-03-25T23:39:02.609Z,99270.00
2023-03-25T23:41:29.972Z,99271.22
2023-03-25T23:43:56.949Z,99254.25
2023-03-25T23:46:25.074Z,99299.59
2023-03-25T23:48:56.027Z,99281.56
2023-03-25T23:51:24.632Z,99279.22
2023-03-25T23:53:52.627Z,99283.53
2023-03-25T23:56:23.062Z,99274.25
2023-03-25T23:58:51.193Z,99286.03
